createdAt,value
2022-09-24T00:00:55.476Z,12.2
2022-09-24T00:01:59.075Z,12.2
2022-09-24T00:03:03.041Z,12.1
2022-09-24T00:04:07.111Z,12.2
2022-09-24T00:05:09.249Z,12.1
2022-09-24T00:06:11.970Z,12.2
2022-09-24T00:07:14.209Z,12.1
2022-09-24T00:08:16.750Z,12.1
2022-09-24T00:09:19.285Z,12.2
2022-09-24T00:10:22.169Z,12.1
2022-09-24T00:11:25.633Z,12.2
2022-09-24T00:12:28.994Z,12.2
2022-09-24T00:13:31.961Z,12.2
2022-09-24T00:14:35.553Z,12.2
2022-09-24T00:15:38.455Z,12.2
2022-09-24T00:16:42.382Z,12.2
2022-09-24T00:17:45.255Z,12.2
2022-09-24T00:18:48.345Z,12.2
2022-09-24T00:19:51.232Z,12.2
2022-09-24T00:20:54.793Z,12.2
2022-09-24T00:21:58.202Z,12.2
2022-09-24T00:23:01.734Z,12.1
2022-09-24T00:24:04.813Z,12.1
2022-09-24T00:25:08.280Z,12.1
2022-09-24T00:26:11.118Z,12.1
2022-09-24T00:27:14.190Z,12.1
2022-09-24T00:28:16.517Z,12.1
2022-09-24T00:29:20.180Z,12.1
2022-09-24T00:30:23.629Z,12.1
2022-09-24T00:31:27.524Z,12.1
2022-09-24T00:32:31.327Z,12
2022-09-24T00:33:35.069Z,12
2022-09-24T00:34:38.057Z,12.1
2022-09-24T00:35:40.598Z,12.1
2022-09-24T00:36:43.671Z,12.1
2022-09-24T00:37:46.190Z,12
2022-09-24T00:38:48.519Z,12
2022-09-24T00:39:51.594Z,12
2022-09-24T00:40:55.122Z,12.1
2022-09-24T00:41:58.595Z,12.1
2022-09-24T00:43:02.032Z,12
2022-09-24T00:44:05.003Z,12
2022-09-24T00:45:08.356Z,12
2022-09-24T00:46:10.958Z,12.1
2022-09-24T00:47:14.111Z,12
2022-09-24T00:48:17.948Z,12
2022-09-24T00:49:21.091Z,12
2022-09-24T00:50:24.187Z,12
2022-09-24T00:51:27.555Z,12
2022-09-24T00:52:30.630Z,12
2022-09-24T00:53:33.903Z,12
2022-09-24T00:54:36.964Z,12
2022-09-24T00:55:40.116Z,12
2022-09-24T00:56:42.634Z,12
2022-09-24T00:57:45.633Z,11.9
2022-09-24T00:58:49.443Z,11.9
2022-09-24T00:59:52.236Z,11.9
2022-09-24T01:00:55.378Z,11.9
2022-09-24T01:01:59.333Z,11.9
2022-09-24T01:03:02.939Z,12
2022-09-24T01:04:07.105Z,12
2022-09-24T01:05:10.565Z,12.1
2022-09-24T01:06:13.648Z,12
2022-09-24T01:07:17.375Z,12
2022-09-24T01:08:19.828Z,11.9
2022-09-24T01:09:22.721Z,12
2022-09-24T01:10:26.180Z,12
2022-09-24T01:11:29.339Z,11.9
2022-09-24T01:12:32.139Z,12
2022-09-24T01:13:36.044Z,11.9
2022-09-24T01:14:46.672Z,12
2022-09-24T01:15:49.565Z,12
2022-09-24T01:16:52.743Z,11.9
2022-09-24T01:17:55.177Z,11.9
2022-09-24T01:18:58.590Z,11.9
2022-09-24T01:20:02.626Z,11.9
2022-09-24T01:21:05.741Z,11.9
2022-09-24T01:22:08.899Z,11.9
2022-09-24T01:23:12.452Z,11.9
2022-09-24T01:24:15.885Z,11.9
2022-09-24T01:25:18.955Z,11.8
2022-09-24T01:26:21.077Z,11.9
2022-09-24T01:27:23.789Z,11.9
2022-09-24T01:28:26.676Z,11.9
2022-09-24T01:29:29.127Z,11.9
2022-09-24T01:30:32.016Z,11.9
2022-09-24T01:31:35.625Z,11.9
2022-09-24T01:32:38.523Z,11.9
2022-09-24T01:33:41.794Z,11.9
2022-09-24T01:34:44.606Z,11.9
2022-09-24T01:35:48.072Z,11.9
2022-09-24T01:36:50.797Z,12
2022-09-24T01:37:53.981Z,11.9
2022-09-24T01:38:56.776Z,11.9
2022-09-24T01:40:00.129Z,12
2022-09-24T01:41:02.673Z,11.9
2022-09-24T01:42:05.290Z,11.9
2022-09-24T01:43:08.106Z,11.9
2022-09-24T01:44:10.483Z,12
2022-09-24T01:45:13.862Z,11.9
2022-09-24T01:46:16.901Z,12
2022-09-24T01:47:19.882Z,11.9
2022-09-24T01:48:22.859Z,11.9
2022-09-24T01:49:26.081Z,12
2022-09-24T01:50:28.919Z,11.9
2022-09-24T01:51:32.673Z,11.9
2022-09-24T01:52:35.875Z,12
2022-09-24T01:53:38.952Z,12
2022-09-24T01:56:21.304Z,11.9
2022-09-24T01:57:24.847Z,12
2022-09-24T01:58:27.331Z,11.9
2022-09-24T01:59:30.191Z,11.9
2022-09-24T02:00:33.442Z,11.9
2022-09-24T02:01:37.644Z,11.9
2022-09-24T02:02:41.132Z,11.8
2022-09-24T02:03:43.419Z,11.9
2022-09-24T02:04:46.597Z,11.9
2022-09-24T02:05:49.772Z,11.9
2022-09-24T02:06:53.249Z,11.9
2022-09-24T02:07:56.999Z,11.9
2022-09-24T02:09:00.259Z,11.9
2022-09-24T02:10:03.349Z,11.9
2022-09-24T02:11:06.138Z,11.9
2022-09-24T02:12:08.297Z,11.9
2022-09-24T02:13:11.590Z,11.9
2022-09-24T02:14:14.380Z,11.9
2022-09-24T02:15:17.451Z,11.9
2022-09-24T02:16:20.719Z,11.9
2022-09-24T02:17:23.998Z,11.8
2022-09-24T02:18:27.160Z,11.8
2022-09-24T02:19:30.228Z,11.9
2022-09-24T02:20:33.403Z,11.9
2022-09-24T02:21:36.438Z,11.8
2022-09-24T02:22:39.941Z,11.8
2022-09-24T02:23:43.629Z,11.8
2022-09-24T02:24:46.716Z,11.8
2022-09-24T02:25:50.070Z,11.8
2022-09-24T02:26:52.581Z,11.8
2022-09-24T02:27:55.644Z,11.8
2022-09-24T02:28:58.446Z,11.8
2022-09-24T02:30:01.962Z,11.8
2022-09-24T02:31:05.335Z,11.9
2022-09-24T02:32:08.231Z,11.9
2022-09-24T02:33:11.389Z,11.9
2022-09-24T02:34:14.202Z,11.9
2022-09-24T02:35:17.274Z,11.8
2022-09-24T02:36:19.809Z,11.7
2022-09-24T02:37:23.105Z,11.8
2022-09-24T02:38:27.172Z,11.8
2022-09-24T02:39:30.464Z,11.8
2022-09-24T02:40:34.327Z,11.8
2022-09-24T02:41:36.926Z,11.7
2022-09-24T02:42:40.458Z,11.7
2022-09-24T02:43:43.779Z,11.8
2022-09-24T02:44:46.356Z,11.8
2022-09-24T02:45:49.705Z,11.7
2022-09-24T02:46:52.551Z,11.8
2022-09-24T02:47:55.227Z,11.8
2022-09-24T02:48:58.410Z,11.8
2022-09-24T02:50:01.971Z,11.8
2022-09-24T02:51:05.122Z,11.8
2022-09-24T02:52:07.919Z,11.8
2022-09-24T02:53:11.040Z,11.8
2022-09-24T02:54:14.794Z,11.9
2022-09-24T02:55:18.299Z,11.9
2022-09-24T02:56:21.015Z,11.7
2022-09-24T02:57:24.187Z,11.7
2022-09-24T02:58:27.888Z,11.7
2022-09-24T02:59:30.879Z,11.8
2022-09-24T03:00:34.333Z,11.8
2022-09-24T03:01:38.983Z,11.7
2022-09-24T03:02:43.074Z,11.7
2022-09-24T03:03:46.114Z,11.8
2022-09-24T03:04:49.540Z,11.7
2022-09-24T03:05:52.719Z,11.7
2022-09-24T03:06:55.449Z,11.7
2022-09-24T03:07:57.888Z,11.7
2022-09-24T03:09:01.356Z,11.7
2022-09-24T03:10:05.122Z,11.8
2022-09-24T03:11:08.653Z,11.8
2022-09-24T03:12:12.372Z,11.8
2022-09-24T03:13:15.443Z,11.8
2022-09-24T03:14:18.235Z,11.8
2022-09-24T03:15:21.305Z,11.7
2022-09-24T03:16:24.448Z,11.8
2022-09-24T03:17:27.541Z,11.7
2022-09-24T03:18:30.251Z,11.7
2022-09-24T03:19:33.691Z,11.8
2022-09-24T03:20:35.929Z,11.8
2022-09-24T03:21:38.084Z,11.8
2022-09-24T03:22:40.601Z,11.8
2022-09-24T03:23:44.043Z,11.7
2022-09-24T03:24:47.183Z,11.8
2022-09-24T03:25:50.389Z,11.8
2022-09-24T03:26:53.573Z,11.8
2022-09-24T03:27:55.823Z,11.8
2022-09-24T03:28:59.259Z,11.8
2022-09-24T03:30:02.438Z,11.8
2022-09-24T03:31:06.085Z,11.8
2022-09-24T03:32:09.020Z,11.8
2022-09-24T03:33:12.047Z,11.8
2022-09-24T03:34:15.063Z,11.9
2022-09-24T03:35:17.839Z,11.8
2022-09-24T03:36:20.660Z,11.9
2022-09-24T03:37:23.191Z,11.8
2022-09-24T03:38:25.733Z,11.8
2022-09-24T03:39:28.169Z,11.8
2022-09-24T03:40:31.528Z,11.8
2022-09-24T03:41:35.585Z,11.9
2022-09-24T03:42:39.628Z,11.9
2022-09-24T03:43:42.782Z,11.8
2022-09-24T03:44:46.235Z,11.7
2022-09-24T03:45:49.378Z,11.8
2022-09-24T03:46:53.085Z,11.8
2022-09-24T03:47:55.635Z,11.7
2022-09-24T03:48:59.742Z,11.8
2022-09-24T03:50:03.209Z,11.6
2022-09-24T03:51:06.352Z,11.7
2022-09-24T03:52:09.073Z,11.7
2022-09-24T03:53:11.671Z,11.8
2022-09-24T03:54:13.905Z,11.6
2022-09-24T03:55:16.894Z,11.7
2022-09-24T03:56:19.879Z,11.6
2022-09-24T03:57:23.904Z,11.6
2022-09-24T03:58:27.477Z,11.6
2022-09-24T03:59:30.277Z,11.6
2022-09-24T04:00:41.274Z,11.7
2022-09-24T04:01:45.004Z,11.7
2022-09-24T04:02:48.857Z,11.6
2022-09-24T04:03:52.418Z,11.7
2022-09-24T04:04:55.214Z,11.7
2022-09-24T04:05:58.368Z,11.6
2022-09-24T04:07:01.372Z,11.7
2022-09-24T04:08:04.450Z,11.8
2022-09-24T04:09:07.613Z,11.8
2022-09-24T04:10:10.703Z,11.7
2022-09-24T04:11:14.126Z,11.7
2022-09-24T04:12:17.257Z,11.7
2022-09-24T04:13:20.513Z,11.7
2022-09-24T04:14:23.793Z,11.6
2022-09-24T04:15:27.152Z,11.6
2022-09-24T04:16:30.767Z,11.6
2022-09-24T04:17:33.733Z,11.7
2022-09-24T04:18:41.059Z,11.8
2022-09-24T04:19:43.676Z,11.7
2022-09-24T04:20:46.387Z,11.6
2022-09-24T04:21:49.813Z,11.7
2022-09-24T04:22:52.560Z,11.8
2022-09-24T04:23:54.799Z,11.7
2022-09-24T04:24:57.800Z,11.7
2022-09-24T04:26:00.316Z,11.7
2022-09-24T04:27:02.558Z,11.7
2022-09-24T04:28:07.745Z,11.7
2022-09-24T04:29:11.490Z,11.6
2022-09-24T04:30:14.406Z,11.7
2022-09-24T04:31:18.073Z,11.6
2022-09-24T04:32:21.436Z,11.5
2022-09-24T04:33:24.414Z,11.6
2022-09-24T04:34:27.562Z,11.7
2022-09-24T04:35:30.529Z,11.7
2022-09-24T04:36:33.958Z,11.7
2022-09-24T04:37:36.830Z,11.6
2022-09-24T04:38:40.319Z,11.7
2022-09-24T04:39:43.387Z,11.6
2022-09-24T04:40:47.041Z,11.5
2022-09-24T04:41:50.244Z,11.5
2022-09-24T04:42:53.503Z,11.6
2022-09-24T04:43:57.556Z,11.6
2022-09-24T04:45:01.307Z,11.6
2022-09-24T04:46:05.508Z,11.6
2022-09-24T04:47:07.905Z,11.6
2022-09-24T04:48:10.988Z,11.5
2022-09-24T04:49:13.704Z,11.5
2022-09-24T04:50:16.739Z,11.5
2022-09-24T04:51:19.915Z,11.5
2022-09-24T04:52:22.703Z,11.4
2022-09-24T04:53:25.774Z,11.5
2022-09-24T04:54:29.223Z,11.4
2022-09-24T04:55:32.403Z,11.5
2022-09-24T04:56:35.289Z,11.4
2022-09-24T04:57:38.580Z,11.4
2022-09-24T04:58:41.182Z,11.4
2022-09-24T04:59:43.738Z,11.4
2022-09-24T05:00:47.495Z,11.4
2022-09-24T05:01:51.511Z,11.4
2022-09-24T05:02:55.254Z,11.4
2022-09-24T05:03:58.419Z,11.3
2022-09-24T05:05:01.350Z,11.3
2022-09-24T05:06:04.150Z,11.4
2022-09-24T05:07:07.901Z,11.4
2022-09-24T05:08:11.284Z,11.5
2022-09-24T05:09:15.578Z,11.4
2022-09-24T05:10:19.442Z,11.4
2022-09-24T05:11:22.340Z,11.5
2022-09-24T05:12:24.853Z,11.5
2022-09-24T05:13:28.650Z,11.5
2022-09-24T05:14:31.637Z,11.5
2022-09-24T05:15:36.575Z,11.5
2022-09-24T05:16:41.534Z,11.5
2022-09-24T05:17:44.746Z,11.5
2022-09-24T05:18:47.464Z,11.4
2022-09-24T05:19:50.457Z,11.5
2022-09-24T05:20:53.048Z,11.4
2022-09-24T05:21:56.499Z,11.5
2022-09-24T05:23:00.247Z,11.4
2022-09-24T05:24:02.733Z,11.5
2022-09-24T05:25:05.577Z,11.5
2022-09-24T05:26:08.814Z,11.5
2022-09-24T05:27:13.546Z,11.6
2022-09-24T05:28:16.950Z,11.6
2022-09-24T05:29:19.731Z,11.6
2022-09-24T05:30:23.758Z,11.6
2022-09-24T05:31:27.898Z,11.6
2022-09-24T05:32:31.737Z,11.6
2022-09-24T05:33:34.933Z,11.5
2022-09-24T05:34:38.284Z,11.5
2022-09-24T05:35:41.086Z,11.6
2022-09-24T05:36:44.439Z,11.6
2022-09-24T05:37:46.678Z,11.6
2022-09-24T05:38:50.127Z,11.6
2022-09-24T05:39:53.549Z,11.6
2022-09-24T05:40:56.411Z,11.6
2022-09-24T05:41:59.514Z,11.6
2022-09-24T05:43:02.308Z,11.6
2022-09-24T05:44:05.465Z,11.6
2022-09-24T05:45:07.900Z,11.6
2022-09-24T05:46:10.816Z,11.6
2022-09-24T05:47:14.437Z,11.7
2022-09-24T05:48:18.297Z,11.6
2022-09-24T05:49:21.334Z,11.6
2022-09-24T05:50:24.079Z,11.7
2022-09-24T05:51:26.883Z,11.7
2022-09-24T05:52:29.684Z,11.8
2022-09-24T05:53:32.983Z,11.8
2022-09-24T05:54:36.248Z,11.8
2022-09-24T05:55:39.885Z,11.8
2022-09-24T05:56:42.947Z,11.7
2022-09-24T05:57:46.019Z,11.7
2022-09-24T05:58:48.887Z,11.7
2022-09-24T05:59:52.035Z,11.6
2022-09-24T06:00:54.840Z,11.6
2022-09-24T06:01:58.162Z,11.7
2022-09-24T06:03:01.888Z,11.8
2022-09-24T06:04:10.654Z,11.7
2022-09-24T06:05:13.858Z,11.7
2022-09-24T06:06:17.205Z,11.8
2022-09-24T06:07:20.006Z,11.8
2022-09-24T06:08:23.300Z,11.9
2022-09-24T06:09:25.809Z,11.8
2022-09-24T06:10:28.787Z,11.8
2022-09-24T06:11:39.918Z,11.8
2022-09-24T06:12:43.551Z,11.7
2022-09-24T06:13:46.432Z,11.8
2022-09-24T06:14:49.498Z,11.8
2022-09-24T06:15:53.532Z,11.7
2022-09-24T06:16:56.631Z,11.8
2022-09-24T06:18:00.255Z,11.9
2022-09-24T06:19:03.833Z,12
2022-09-24T06:20:07.972Z,11.9
2022-09-24T06:21:11.241Z,11.9
2022-09-24T06:22:14.027Z,12
2022-09-24T06:23:16.808Z,12.1
2022-09-24T06:24:19.239Z,12
2022-09-24T06:25:22.254Z,12.1
2022-09-24T06:26:25.619Z,12.1
2022-09-24T06:27:28.891Z,12.1
2022-09-24T06:28:32.158Z,12.1
2022-09-24T06:29:35.221Z,12.2
2022-09-24T06:30:38.653Z,12.2
2022-09-24T06:31:41.806Z,12.2
2022-09-24T06:32:45.290Z,12
2022-09-24T06:33:47.455Z,12.1
2022-09-24T06:34:59.491Z,12.1
2022-09-24T06:36:03.179Z,12.1
2022-09-24T06:37:05.527Z,12.2
2022-09-24T06:38:08.879Z,12.2
2022-09-24T06:39:11.596Z,12.2
2022-09-24T06:40:15.502Z,12.2
2022-09-24T06:41:18.990Z,12.2
2022-09-24T06:42:22.089Z,12.3
2022-09-24T06:43:25.806Z,12.3
2022-09-24T06:44:28.605Z,12.2
2022-09-24T06:45:31.991Z,12.2
2022-09-24T06:46:35.305Z,12.4
2022-09-24T06:47:38.510Z,12.3
2022-09-24T06:48:41.398Z,12.2
2022-09-24T06:49:43.998Z,12.2
2022-09-24T06:50:47.541Z,12.3
2022-09-24T06:51:50.798Z,12.3
2022-09-24T06:52:53.838Z,12.3
2022-09-24T06:53:56.832Z,12.4
2022-09-24T06:54:59.895Z,12.1
2022-09-24T06:56:02.333Z,12.3
2022-09-24T06:57:05.334Z,12.4
2022-09-24T06:58:09.086Z,12.5
2022-09-24T06:59:12.596Z,12.5
2022-09-24T07:00:15.313Z,12.4
2022-09-24T07:01:19.183Z,12.4
2022-09-24T07:02:22.473Z,12.4
2022-09-24T07:03:25.503Z,12.5
2022-09-24T07:04:28.495Z,12.6
2022-09-24T07:05:32.113Z,12.7
2022-09-24T07:06:35.932Z,12.8
2022-09-24T07:07:39.398Z,12.7
2022-09-24T07:08:42.559Z,12.6
2022-09-24T07:09:45.548Z,12.6
2022-09-24T07:10:48.617Z,12.7
2022-09-24T07:11:50.582Z,12.8
2022-09-24T07:12:54.034Z,12.8
2022-09-24T07:13:57.332Z,12.8
2022-09-24T07:15:00.223Z,12.8
2022-09-24T07:16:04.150Z,12.6
2022-09-24T07:17:07.052Z,12.7
2022-09-24T07:18:10.111Z,12.8
2022-09-24T07:19:13.937Z,12.9
2022-09-24T07:20:17.118Z,12.9
2022-09-24T07:21:20.841Z,12.9
2022-09-24T07:22:24.004Z,12.9
2022-09-24T07:23:27.376Z,12.9
2022-09-24T07:24:31.674Z,12.9
2022-09-24T07:25:34.917Z,13
2022-09-24T07:26:38.258Z,13
2022-09-24T07:27:40.780Z,13
2022-09-24T07:28:43.870Z,13
2022-09-24T07:29:47.251Z,13.1
2022-09-24T07:30:50.071Z,13.2
2022-09-24T07:31:52.612Z,13.2
2022-09-24T07:32:55.404Z,13.1
2022-09-24T07:33:58.399Z,13.2
2022-09-24T07:35:01.775Z,13.1
2022-09-24T07:36:04.487Z,13.1
2022-09-24T07:37:07.830Z,13.1
2022-09-24T07:38:11.270Z,13.1
2022-09-24T07:39:14.811Z,13.1
2022-09-24T07:40:18.158Z,13.2
2022-09-24T07:41:20.620Z,13.3
2022-09-24T07:42:23.841Z,13.3
2022-09-24T07:43:27.795Z,13.3
2022-09-24T07:44:30.686Z,13.4
2022-09-24T07:45:33.379Z,13.3
2022-09-24T07:46:37.303Z,13.3
2022-09-24T07:47:40.553Z,13.2
2022-09-24T07:48:43.168Z,13.3
2022-09-24T07:49:46.393Z,13.3
2022-09-24T07:50:50.402Z,13.3
2022-09-24T07:51:53.856Z,13.3
2022-09-24T07:52:56.966Z,13.2
2022-09-24T07:54:00.101Z,13.2
2022-09-24T07:55:04.062Z,13.4
2022-09-24T07:56:07.444Z,13.4
2022-09-24T07:57:09.950Z,13.2
2022-09-24T07:58:13.040Z,13.3
2022-09-24T07:59:15.485Z,13.3
2022-09-24T08:00:18.082Z,13.4
2022-09-24T08:01:21.590Z,13.4
2022-09-24T08:02:25.134Z,13.2
2022-09-24T08:03:28.398Z,13.1
2022-09-24T08:04:31.412Z,13.2
2022-09-24T08:05:34.610Z,13.2
2022-09-24T08:06:48.508Z,13.3
2022-09-24T08:07:51.500Z,13.4
2022-09-24T08:08:54.503Z,13.4
2022-09-24T08:09:57.961Z,13.4
2022-09-24T08:11:02.004Z,13.3
2022-09-24T08:12:05.072Z,13.3
2022-09-24T08:13:07.316Z,13.4
2022-09-24T08:14:10.644Z,13.4
2022-09-24T08:15:14.447Z,13.4
2022-09-24T08:16:17.466Z,13.3
2022-09-24T08:17:20.944Z,13.3
2022-09-24T08:18:24.288Z,13.4
2022-09-24T08:19:26.341Z,13.4
2022-09-24T08:20:29.436Z,13.5
2022-09-24T08:21:32.434Z,13.5
2022-09-24T08:22:35.889Z,13.6
2022-09-24T08:23:39.222Z,13.6
2022-09-24T08:24:42.361Z,13.6
2022-09-24T08:25:45.206Z,13.6
2022-09-24T08:26:49.044Z,13.7
2022-09-24T08:27:52.529Z,13.6
2022-09-24T08:28:55.601Z,13.7
2022-09-24T08:29:58.394Z,13.8
2022-09-24T08:31:01.670Z,13.7
2022-09-24T08:32:04.369Z,13.7
2022-09-24T08:33:06.912Z,13.8
2022-09-24T08:34:10.576Z,13.9
2022-09-24T08:35:14.105Z,13.9
2022-09-24T08:36:16.822Z,13.9
2022-09-24T08:37:19.121Z,13.9
2022-09-24T08:38:22.156Z,14
2022-09-24T08:39:25.326Z,14.1
2022-09-24T08:40:28.622Z,14.2
2022-09-24T08:41:32.215Z,14.2
2022-09-24T08:42:35.962Z,14.3
2022-09-24T08:43:39.158Z,14.3
2022-09-24T08:44:41.483Z,14.3
2022-09-24T08:45:44.348Z,14
2022-09-24T08:46:48.316Z,14
2022-09-24T08:47:51.495Z,14.2
2022-09-24T08:48:53.479Z,14.2
2022-09-24T08:49:56.021Z,14.2
2022-09-24T08:50:59.493Z,14.3
2022-09-24T08:52:02.931Z,14.3
2022-09-24T08:53:05.379Z,14.3
2022-09-24T08:54:08.872Z,14.2
2022-09-24T08:55:11.529Z,14.3
2022-09-24T08:56:14.612Z,14.4
2022-09-24T08:57:17.897Z,14.4
2022-09-24T08:58:21.736Z,14.4
2022-09-24T08:59:25.784Z,14.3
2022-09-24T09:00:29.305Z,14.4
2022-09-24T09:01:32.766Z,14.4
2022-09-24T09:02:37.058Z,14.6
2022-09-24T09:03:40.296Z,14.6
2022-09-24T09:04:43.415Z,14.6
2022-09-24T09:05:50.694Z,14.5
2022-09-24T09:06:54.136Z,14.6
2022-09-24T09:07:57.230Z,14.5
2022-09-24T09:09:09.583Z,14.6
2022-09-24T09:10:12.335Z,14.5
2022-09-24T09:11:15.787Z,14.4
2022-09-24T09:12:19.176Z,14.6
2022-09-24T09:13:22.733Z,14.6
2022-09-24T09:14:38.235Z,14.6
2022-09-24T09:15:45.192Z,14.7
2022-09-24T09:16:48.799Z,14.7
2022-09-24T09:17:52.158Z,14.7
2022-09-24T09:18:54.472Z,14.5
2022-09-24T09:19:57.486Z,14.6
2022-09-24T09:21:00.048Z,14.8
2022-09-24T09:22:03.122Z,14.8
2022-09-24T09:23:06.294Z,14.9
2022-09-24T09:24:09.810Z,14.8
2022-09-24T09:25:12.350Z,14.8
2022-09-24T09:26:15.691Z,14.7
2022-09-24T09:27:18.511Z,14.6
2022-09-24T09:28:21.588Z,14.7
2022-09-24T09:29:24.253Z,14.7
2022-09-24T09:30:28.437Z,14.7
2022-09-24T09:31:31.576Z,14.7
2022-09-24T09:32:34.790Z,14.7
2022-09-24T09:33:37.507Z,14.8
2022-09-24T09:34:41.587Z,14.8
2022-09-24T09:35:44.668Z,14.8
2022-09-24T09:36:47.385Z,14.9
2022-09-24T09:37:49.842Z,15.1
2022-09-24T09:38:52.835Z,15.1
2022-09-24T09:39:56.011Z,15.1
2022-09-24T09:40:59.012Z,14.9
2022-09-24T09:42:02.613Z,14.9
2022-09-24T09:43:04.865Z,14.9
2022-09-24T09:44:08.460Z,14.9
2022-09-24T09:45:11.685Z,15
2022-09-24T09:46:16.350Z,14.9
2022-09-24T09:47:19.551Z,15
2022-09-24T09:48:22.946Z,15.1
2022-09-24T09:49:25.533Z,15.1
2022-09-24T09:50:28.979Z,15
2022-09-24T09:51:31.809Z,15
2022-09-24T09:52:34.976Z,14.8
2022-09-24T09:53:38.140Z,14.7
2022-09-24T09:54:40.728Z,14.8
2022-09-24T09:55:44.187Z,15.1
2022-09-24T09:56:47.931Z,15.3
2022-09-24T09:57:51.666Z,15.4
2022-09-24T09:58:54.195Z,15.1
2022-09-24T09:59:57.287Z,14.9
2022-09-24T10:00:59.862Z,14.9
2022-09-24T10:02:04.242Z,15
2022-09-24T10:03:08.441Z,15
2022-09-24T10:04:11.975Z,15.1
2022-09-24T10:05:28.611Z,15.2
2022-09-24T10:06:32.513Z,15.2
2022-09-24T10:07:35.581Z,15.3
2022-09-24T10:08:38.737Z,15.2
2022-09-24T10:09:41.347Z,15.2
2022-09-24T10:10:44.064Z,15.3
2022-09-24T10:11:46.694Z,15.4
2022-09-24T10:12:49.838Z,15.4
2022-09-24T10:13:52.935Z,15.4
2022-09-24T10:14:56.035Z,15.3
2022-09-24T10:15:59.974Z,15.4
2022-09-24T10:17:02.349Z,15.6
2022-09-24T10:18:06.223Z,15.5
2022-09-24T10:19:09.020Z,15.6
2022-09-24T10:20:11.817Z,15.7
2022-09-24T10:21:15.201Z,15.9
2022-09-24T10:22:17.995Z,16.1
2022-09-24T10:23:21.176Z,16
2022-09-24T10:24:24.172Z,15.8
2022-09-24T10:25:26.516Z,15.7
2022-09-24T10:26:29.691Z,15.5
2022-09-24T10:27:32.684Z,15.6
2022-09-24T10:28:36.133Z,15.7
2022-09-24T10:29:38.934Z,15.7
2022-09-24T10:30:42.085Z,15.5
2022-09-24T10:31:45.463Z,15.8
2022-09-24T10:32:49.058Z,15.8
2022-09-24T10:33:53.288Z,15.6
2022-09-24T10:34:56.105Z,15.9
2022-09-24T10:35:59.174Z,16.1
2022-09-24T10:37:01.653Z,16.3
2022-09-24T10:38:06.853Z,16.4
2022-09-24T10:39:09.749Z,16.4
2022-09-24T10:40:13.391Z,16.7
2022-09-24T10:41:16.309Z,16.7
2022-09-24T10:42:19.690Z,16.7
2022-09-24T10:43:22.687Z,16.9
2022-09-24T10:44:24.840Z,17
2022-09-24T10:45:27.836Z,16.8
2022-09-24T10:46:31.801Z,16.5
2022-09-24T10:47:34.741Z,16.3
2022-09-24T10:48:37.497Z,16.2
2022-09-24T10:49:41.557Z,16
2022-09-24T10:50:44.906Z,16.2
2022-09-24T10:51:47.962Z,16
2022-09-24T10:52:50.951Z,16
2022-09-24T10:53:54.702Z,16.1
2022-09-24T10:54:58.154Z,16.4
2022-09-24T10:56:01.010Z,16.1
2022-09-24T10:57:03.894Z,15.9
2022-09-24T10:58:06.438Z,16
2022-09-24T10:59:09.593Z,16.1
2022-09-24T11:00:12.945Z,16.3
2022-09-24T11:01:15.984Z,16.3
2022-09-24T11:02:19.665Z,16.3
2022-09-24T11:03:23.669Z,16.3
2022-09-24T11:04:26.861Z,16.2
2022-09-24T11:05:30.970Z,16
2022-09-24T11:06:33.260Z,15.8
2022-09-24T11:07:36.058Z,15.8
2022-09-24T11:08:39.717Z,15.7
2022-09-24T11:09:42.521Z,15.7
2022-09-24T11:10:46.541Z,15.5
2022-09-24T11:11:49.064Z,15.6
2022-09-24T11:12:51.942Z,15.7
2022-09-24T11:13:54.443Z,15.6
2022-09-24T11:14:56.936Z,15.6
2022-09-24T11:16:00.055Z,15.5
2022-09-24T11:17:03.307Z,15.5
2022-09-24T11:18:06.530Z,15.4
2022-09-24T11:19:09.326Z,15.4
2022-09-24T11:20:13.197Z,15.3
2022-09-24T11:21:17.001Z,15.3
2022-09-24T11:22:20.349Z,15.3
2022-09-24T11:23:23.076Z,15.4
2022-09-24T11:24:26.239Z,15.4
2022-09-24T11:25:28.837Z,15.5
2022-09-24T11:26:31.815Z,15.4
2022-09-24T11:27:34.985Z,15.4
2022-09-24T11:28:37.149Z,15.3
2022-09-24T11:29:40.217Z,15.4
2022-09-24T11:30:43.412Z,15.6
2022-09-24T11:31:46.457Z,15.5
2022-09-24T11:32:49.427Z,15.6
2022-09-24T11:33:52.579Z,15.5
2022-09-24T11:34:55.680Z,15.4
2022-09-24T11:35:58.378Z,15.3
2022-09-24T11:37:02.253Z,15.3
2022-09-24T11:38:05.886Z,15.3
2022-09-24T11:39:08.684Z,15.4
2022-09-24T11:40:12.612Z,15.4
2022-09-24T11:41:15.686Z,15.3
2022-09-24T11:42:18.627Z,15.5
2022-09-24T11:43:22.337Z,15.5
2022-09-24T11:44:25.717Z,15.2
2022-09-24T11:45:28.793Z,15.3
2022-09-24T11:46:32.454Z,15.1
2022-09-24T11:47:34.854Z,15.2
2022-09-24T11:48:38.664Z,15.1
2022-09-24T11:49:41.386Z,15
2022-09-24T11:50:49.105Z,15.1
2022-09-24T11:51:52.634Z,15.1
2022-09-24T11:52:56.784Z,15
2022-09-24T11:53:59.458Z,15
2022-09-24T11:55:02.631Z,14.9
2022-09-24T11:56:14.377Z,14.7
2022-09-24T11:57:18.175Z,14.8
2022-09-24T11:58:21.546Z,14.8
2022-09-24T11:59:24.369Z,14.8
2022-09-24T12:00:27.815Z,14.8
2022-09-24T12:01:31.787Z,14.8
2022-09-24T12:02:35.378Z,14.7
2022-09-24T12:03:39.182Z,14.6
2022-09-24T12:04:42.691Z,14.7
2022-09-24T12:05:45.769Z,14.8
2022-09-24T12:06:48.567Z,14.7
2022-09-24T12:07:51.115Z,14.9
2022-09-24T12:08:55.305Z,14.8
2022-09-24T12:09:57.887Z,14.8
2022-09-24T12:11:00.568Z,14.7
2022-09-24T12:12:03.954Z,14.8
2022-09-24T12:13:07.026Z,14.9
2022-09-24T12:14:10.586Z,14.8
2022-09-24T12:15:13.537Z,14.7
2022-09-24T12:16:16.470Z,14.7
2022-09-24T12:17:19.692Z,14.6
2022-09-24T12:18:22.134Z,14.6
2022-09-24T12:19:24.955Z,14.6
2022-09-24T12:20:28.666Z,14.7
2022-09-24T12:21:31.734Z,14.6
2022-09-24T12:22:34.279Z,14.6
2022-09-24T12:23:37.535Z,14.6
2022-09-24T12:24:41.415Z,14.7
2022-09-24T12:25:44.481Z,14.7
2022-09-24T12:26:47.655Z,14.8
2022-09-24T12:27:50.812Z,14.9
2022-09-24T12:28:53.887Z,14.6
2022-09-24T12:29:56.889Z,14.3
2022-09-24T12:31:00.628Z,14.4
2022-09-24T12:32:03.944Z,14.4
2022-09-24T12:33:06.740Z,14.6
2022-09-24T12:34:10.425Z,14.4
2022-09-24T12:35:13.513Z,14.3
2022-09-24T12:36:16.947Z,14.3
2022-09-24T12:37:20.116Z,14.1
2022-09-24T12:38:23.489Z,14.1
2022-09-24T12:39:26.580Z,14.2
2022-09-24T12:40:30.950Z,14
2022-09-24T12:41:34.205Z,13.9
2022-09-24T12:42:36.527Z,14.1
2022-09-24T12:43:39.246Z,14.2
2022-09-24T12:44:42.239Z,14.3
2022-09-24T12:45:45.674Z,14.1
2022-09-24T12:46:48.978Z,14
2022-09-24T12:47:51.777Z,13.9
2022-09-24T12:48:55.236Z,14.1
2022-09-24T12:49:58.509Z,14.1
2022-09-24T12:51:01.386Z,14.2
2022-09-24T12:52:04.465Z,14.2
2022-09-24T12:53:07.552Z,14.3
2022-09-24T12:54:10.847Z,14.3
2022-09-24T12:55:13.336Z,14.4
2022-09-24T12:56:17.482Z,14.3
2022-09-24T12:57:27.774Z,14.1
2022-09-24T12:58:30.799Z,14.2
2022-09-24T12:59:34.540Z,13.9
2022-09-24T13:00:38.156Z,13.8
2022-09-24T13:01:42.102Z,13.9
2022-09-24T13:02:46.804Z,13.9
2022-09-24T13:03:49.750Z,13.6
2022-09-24T13:04:53.204Z,13.7
2022-09-24T13:05:55.922Z,13.6
2022-09-24T13:06:59.336Z,13.6
2022-09-24T13:08:03.026Z,13.6
2022-09-24T13:09:05.997Z,13.5
2022-09-24T13:10:09.292Z,13.4
2022-09-24T13:11:12.435Z,13.4
2022-09-24T13:12:15.990Z,13.2
2022-09-24T13:13:18.792Z,13.2
2022-09-24T13:14:22.242Z,13.3
2022-09-24T13:15:29.249Z,13.4
2022-09-24T13:16:32.355Z,13.2
2022-09-24T13:17:36.205Z,13
2022-09-24T13:18:39.366Z,13.2
2022-09-24T13:19:42.311Z,13.2
2022-09-24T13:20:51.653Z,13.3
2022-09-24T13:21:55.013Z,13.3
2022-09-24T13:22:58.472Z,13.4
2022-09-24T13:24:01.891Z,13.5
2022-09-24T13:25:05.041Z,13.7
2022-09-24T13:26:08.054Z,13.6
2022-09-24T13:27:11.264Z,13.7
2022-09-24T13:28:15.432Z,13.5
2022-09-24T13:29:18.710Z,13.5
2022-09-24T13:30:21.792Z,13.3
2022-09-24T13:31:25.297Z,13.2
2022-09-24T13:32:28.848Z,13.3
2022-09-24T13:33:32.602Z,13.2
2022-09-24T13:34:35.587Z,13.3
2022-09-24T13:35:38.175Z,13.3
2022-09-24T13:36:41.507Z,13.4
2022-09-24T13:37:44.965Z,13.3
2022-09-24T13:38:47.963Z,13.2
2022-09-24T13:39:50.834Z,13.4
2022-09-24T13:40:54.617Z,13.4
2022-09-24T13:41:58.020Z,13.2
2022-09-24T13:43:00.780Z,13.2
2022-09-24T13:44:05.106Z,13.3
2022-09-24T13:45:11.555Z,13.3
2022-09-24T13:46:14.891Z,13.4
2022-09-24T13:47:18.056Z,13.4
2022-09-24T13:48:21.067Z,13.4
2022-09-24T13:49:23.783Z,13.3
2022-09-24T13:50:26.459Z,13.3
2022-09-24T13:51:29.205Z,13.3
2022-09-24T13:52:31.920Z,13.2
2022-09-24T13:53:35.198Z,13.3
2022-09-24T13:54:38.213Z,13.3
2022-09-24T13:55:41.490Z,13.2
2022-09-24T13:56:44.833Z,13.1
2022-09-24T13:57:48.369Z,13.1
2022-09-24T13:58:51.716Z,12.9
2022-09-24T13:59:55.424Z,12.9
2022-09-24T14:00:58.794Z,12.9
2022-09-24T14:02:01.934Z,13.1
2022-09-24T14:03:04.713Z,13.2
2022-09-24T14:04:08.230Z,13.2
2022-09-24T14:05:11.826Z,13.2
2022-09-24T14:06:14.759Z,13.1
2022-09-24T14:07:18.212Z,13.1
2022-09-24T14:08:23.045Z,13.1
2022-09-24T14:09:26.312Z,13